Time;durP1;ratioP1;P1;durP2;ratioP2;P2;SDS_P1;SDS_P2;PMS_P1;PMS_P2;Temp;Humidity;BMP_temperature;BMP_pressure;BME280_temperature;BME280_humidity;BME280_pressure;Samples;Min_cycle;Max_cycle;Signal;HPM_P1;HPM_P2
2022/10/28 00:01:11;;;;;;;7.20;4.65;;;15.00;99.90;;;;;;5030707;28;20024;-82
2022/10/28 00:03:38;;;;;;;6.93;4.25;;;14.90;99.90;;;;;;5034970;28;20033;-81
2022/10/28 00:06:16;;;;;;;9.75;4.22;;;14.90;99.90;;;;;;5034816;28;20031;-81
2022/10/28 00:08:43;;;;;;;5.72;3.78;;;14.80;99.90;;;;;;5023121;28;20030;-82
2022/10/28 00:11:11;;;;;;;9.05;4.93;;;14.70;99.90;;;;;;5032795;28;20120;-82
2022/10/28 00:13:42;;;;;;;6.28;3.95;;;14.70;99.90;;;;;;5051472;28;20025;-82
2022/10/28 00:16:29;;;;;;;7.97;4.18;;;14.60;99.90;;;;;;5034959;28;20021;-82
2022/10/28 00:18:59;;;;;;;9.82;4.72;;;14.60;99.90;;;;;;5053093;28;20033;-82
2022/10/28 00:21:29;;;;;;;9.60;4.63;;;14.60;99.90;;;;;;5049210;28;20021;-82
2022/10/28 00:24:00;;;;;;;7.20;5.05;;;14.50;99.90;;;;;;5052447;28;20433;-81
2022/10/28 00:26:30;;;;;;;6.82;4.18;;;14.40;99.90;;;;;;5034323;28;20407;-81
2022/10/28 00:29:01;;;;;;;7.93;4.43;;;14.40;99.90;;;;;;5033844;28;20108;-82
2022/10/28 00:31:28;;;;;;;6.95;4.35;;;14.30;99.90;;;;;;5051392;28;20056;-81
2022/10/28 00:33:55;;;;;;;6.45;4.20;;;14.30;99.90;;;;;;5051662;28;20028;-81
2022/10/28 00:36:26;;;;;;;7.70;4.82;;;14.30;99.90;;;;;;5033231;28;20386;-81
2022/10/28 00:38:54;;;;;;;9.90;4.07;;;14.20;99.90;;;;;;5017927;28;20022;-81
2022/10/28 00:41:22;;;;;;;6.68;4.38;;;14.10;99.90;;;;;;5051054;28;20029;-81
2022/10/28 00:43:51;;;;;;;8.00;4.35;;;14.10;99.90;;;;;;5051086;28;20055;-80
2022/10/28 00:46:24;;;;;;;8.25;3.97;;;14.10;99.90;;;;;;5033427;28;20085;-80
2022/10/28 00:48:54;;;;;;;8.85;4.60;;;14.10;99.90;;;;;;5033497;28;20021;-81
2022/10/28 00:51:22;;;;;;;7.03;4.55;;;14.10;99.90;;;;;;5033065;28;20056;-81
2022/10/28 00:53:50;;;;;;;13.65;4.97;;;14.10;99.90;;;;;;5032660;28;20500;-80
2022/10/28 00:56:17;;;;;;;6.25;4.20;;;14.10;99.90;;;;;;5051299;28;20059;-81
2022/10/28 00:58:48;;;;;;;6.32;4.20;;;14.00;99.90;;;;;;5033204;28;20106;-81
2022/10/28 01:01:16;;;;;;;6.00;3.67;;;13.90;99.90;;;;;;5032926;28;20192;-82
2022/10/28 01:03:53;;;;;;;6.85;3.70;;;13.90;99.90;;;;;;5032246;28;20039;-82
2022/10/28 01:06:19;;;;;;;7.60;4.45;;;13.90;99.90;;;;;;5028246;28;20029;-82
2022/10/28 01:08:45;;;;;;;7.80;3.90;;;13.80;99.90;;;;;;5019709;28;20268;-82
2022/10/28 01:11:53;;;;;;;6.78;4.25;;;13.80;99.90;;;;;;5011356;28;20022;-82
2022/10/28 01:14:42;;;;;;;6.65;3.50;;;13.70;99.90;;;;;;5011393;28;20114;-81
2022/10/28 01:17:53;;;;;;;14.65;5.50;;;13.70;99.90;;;;;;5012523;28;20116;-81
2022/10/28 01:20:46;;;;;;;7.35;5.00;;;13.70;99.90;;;;;;5003442;28;20379;-82
2022/10/28 01:23:27;;;;;;;9.27;4.15;;;13.80;99.90;;;;;;5035576;28;20032;-81
2022/10/28 01:26:16;;;;;;;11.27;4.32;;;13.70;99.90;;;;;;5019990;28;20099;-81
2022/10/28 01:29:17;;;;;;;10.05;4.20;;;13.70;99.90;;;;;;5030737;28;20159;-81
2022/10/28 01:31:58;;;;;;;12.38;4.55;;;13.80;99.90;;;;;;5030143;28;20021;-81
2022/10/28 01:34:41;;;;;;;14.23;4.63;;;13.80;99.90;;;;;;5008977;28;20026;-80
2022/10/28 01:37:34;;;;;;;6.80;3.88;;;13.80;99.90;;;;;;5007370;28;20108;-81
2022/10/28 01:40:35;;;;;;;5.65;3.80;;;13.70;99.90;;;;;;5010487;28;20014;-81
2022/10/28 01:43:09;;;;;;;7.18;3.72;;;13.70;99.90;;;;;;4980558;28;20022;-81
2022/10/28 01:46:02;;;;;;;5.60;3.75;;;13.70;99.90;;;;;;5009511;28;20022;-80
2022/10/28 01:48:38;;;;;;;6.68;4.07;;;13.70;99.90;;;;;;5017032;28;20100;-81
2022/10/28 01:51:08;;;;;;;15.98;4.80;;;13.70;99.90;;;;;;5004202;28;20014;-81
2022/10/28 01:53:40;;;;;;;9.13;4.90;;;13.70;99.90;;;;;;5029967;28;20479;-81
2022/10/28 01:56:15;;;;;;;9.57;5.13;;;13.70;99.90;;;;;;5005069;28;20469;-81
2022/10/28 01:58:42;;;;;;;8.55;4.45;;;13.70;99.90;;;;;;5030354;28;20475;-81
2022/10/28 02:01:09;;;;;;;8.88;4.97;;;13.70;99.90;;;;;;5030328;28;20025;-81
2022/10/28 02:03:35;;;;;;;11.63;4.95;;;13.80;99.90;;;;;;5030244;28;20033;-81
2022/10/28 02:06:05;;;;;;;7.25;4.40;;;13.80;99.90;;;;;;5030000;28;20394;-81
2022/10/28 02:08:51;;;;;;;6.82;4.45;;;13.80;99.90;;;;;;5024691;28;20518;-80
2022/10/28 02:11:20;;;;;;;6.75;4.18;;;13.90;99.90;;;;;;5010226;28;20037;-80
2022/10/28 02:13:57;;;;;;;7.35;4.38;;;13.90;99.90;;;;;;5029675;28;20042;-80
2022/10/28 02:16:49;;;;;;;9.50;4.43;;;13.90;99.90;;;;;;4996256;28;20018;-80
2022/10/28 02:20:02;;;;;;;6.22;4.47;;;13.90;99.90;;;;;;4993113;28;20053;-81
2022/10/28 02:22:45;;;;;;;5.90;4.35;;;13.90;99.90;;;;;;4963616;28;20034;-81
2022/10/28 02:25:17;;;;;;;10.65;4.68;;;13.90;99.90;;;;;;5009574;28;20025;-80
2022/10/28 02:28:02;;;;;;;7.90;3.83;;;13.90;99.90;;;;;;4992869;28;20113;-81
2022/10/28 02:30:50;;;;;;;9.88;4.03;;;13.90;99.90;;;;;;5019477;28;20022;-80
2022/10/28 02:33:27;;;;;;;9.55;4.57;;;13.80;99.90;;;;;;5031985;28;20032;-80
2022/10/28 02:36:11;;;;;;;7.60;4.43;;;13.80;99.90;;;;;;5032033;28;20021;-80
2022/10/28 02:38:57;;;;;;;9.00;4.10;;;13.70;99.90;;;;;;5035794;28;20021;-80
2022/10/28 02:41:28;;;;;;;9.57;4.43;;;13.70;99.90;;;;;;5035499;28;20021;-80
2022/10/28 02:43:58;;;;;;;9.88;4.53;;;13.70;99.90;;;;;;5053756;28;20025;-80
2022/10/28 02:46:27;;;;;;;;;;;13.70;99.90;;;;;;5036178;28;20079;-81
2022/10/28 02:49:00;;;;;;;9.27;4.28;;;13.70;99.90;;;;;;5035912;28;19954;-81
2022/10/28 02:51:33;;;;;;;9.05;3.90;;;13.70;99.90;;;;;;5035433;28;20048;-81
2022/10/28 02:54:10;;;;;;;9.18;4.38;;;13.70;99.90;;;;;;5035530;28;20061;-81
2022/10/28 02:56:56;;;;;;;12.23;4.90;;;13.70;99.90;;;;;;5035477;28;20494;-81
2022/10/28 02:59:27;;;;;;;15.30;4.75;;;13.70;99.90;;;;;;5046952;28;20021;-80
2022/10/28 03:01:55;;;;;;;11.70;4.88;;;13.80;99.90;;;;;;5026850;28;20021;-80
2022/10/28 03:04:24;;;;;;;8.30;5.22;;;13.80;99.90;;;;;;5053643;28;20108;-81
2022/10/28 03:06:50;;;;;;;8.90;4.40;;;13.80;99.90;;;;;;5053272;28;20474;-81
2022/10/28 03:09:17;;;;;;;8.05;4.15;;;13.80;99.90;;;;;;5035514;28;20455;-81
2022/10/28 03:11:43;;;;;;;9.20;5.10;;;13.80;99.90;;;;;;5035423;28;20021;-81
2022/10/28 03:14:09;;;;;;;7.65;4.03;;;13.80;99.90;;;;;;5035401;28;20061;-80
2022/10/28 03:16:35;;;;;;;6.28;4.20;;;13.80;99.90;;;;;;5035308;28;20408;-80
2022/10/28 03:19:03;;;;;;;8.77;5.30;;;13.70;99.90;;;;;;5052989;28;20413;-80
2022/10/28 03:21:29;;;;;;;9.20;4.15;;;13.70;99.90;;;;;;5052414;28;20583;-79
2022/10/28 03:23:55;;;;;;;10.40;4.32;;;13.70;99.90;;;;;;5034794;28;20115;-79
2022/10/28 03:26:21;;;;;;;9.55;4.13;;;13.70;99.90;;;;;;5034911;28;20390;-79
2022/10/28 03:28:46;;;;;;;8.30;4.47;;;13.70;99.90;;;;;;5030931;28;20030;-80
2022/10/28 03:31:14;;;;;;;8.32;4.32;;;13.70;99.90;;;;;;5023942;28;20427;-80
2022/10/28 03:33:39;;;;;;;8.02;4.55;;;13.60;99.90;;;;;;5015884;28;20028;-79
2022/10/28 03:36:05;;;;;;;5.80;4.35;;;13.60;99.90;;;;;;5016537;28;20021;-80
2022/10/28 03:38:31;;;;;;;10.63;4.20;;;13.60;99.90;;;;;;5015283;28;20025;-81
2022/10/28 03:41:00;;;;;;;7.03;4.15;;;13.60;99.90;;;;;;5015645;28;20021;-81
2022/10/28 03:43:26;;;;;;;9.30;4.72;;;13.50;99.90;;;;;;5015562;28;20034;-80
2022/10/28 03:45:52;;;;;;;9.35;4.03;;;13.50;99.90;;;;;;5015215;28;20048;-81
2022/10/28 03:48:17;;;;;;;8.15;4.22;;;13.50;99.90;;;;;;5032976;28;20100;-80
2022/10/28 03:50:43;;;;;;;11.20;5.03;;;13.50;99.90;;;;;;5015371;28;20471;-81
2022/10/28 03:53:09;;;;;;;6.22;4.43;;;13.50;99.90;;;;;;5014356;28;20418;-81
2022/10/28 03:55:34;;;;;;;6.07;4.32;;;13.40;99.90;;;;;;5032748;28;20025;-80
2022/10/28 03:58:01;;;;;;;9.05;4.43;;;13.40;99.90;;;;;;5015857;28;20105;-81
2022/10/28 04:00:27;;;;;;;5.13;3.75;;;13.40;99.90;;;;;;5019540;28;20017;-81
2022/10/28 04:02:53;;;;;;;4.18;3.30;;;13.40;99.90;;;;;;5015696;28;20026;-82
2022/10/28 04:05:20;;;;;;;6.13;4.15;;;13.40;99.90;;;;;;4996323;28;20545;-81
2022/10/28 04:07:46;;;;;;;6.47;4.25;;;13.30;99.90;;;;;;5009029;28;20028;-81
2022/10/28 04:10:12;;;;;;;11.55;4.07;;;13.30;99.90;;;;;;5026500;28;20041;-81
2022/10/28 04:12:38;;;;;;;7.05;3.90;;;13.30;99.90;;;;;;5034281;28;20094;-81
2022/10/28 04:15:04;;;;;;;7.65;4.22;;;13.20;99.90;;;;;;5034546;28;20589;-81
2022/10/28 04:17:32;;;;;;;10.18;5.45;;;13.20;99.90;;;;;;5034373;28;20032;-81
2022/10/28 04:19:58;;;;;;;10.18;4.70;;;13.20;99.90;;;;;;5034571;28;20047;-80
2022/10/28 04:22:23;;;;;;;8.48;4.72;;;13.20;99.90;;;;;;5053759;28;20450;-81
2022/10/28 04:24:49;;;;;;;7.60;4.80;;;13.20;99.90;;;;;;5053720;28;20320;-81
2022/10/28 04:27:15;;;;;;;8.77;4.53;;;13.10;99.90;;;;;;5053651;28;20514;-81
2022/10/28 04:29:41;;;;;;;9.85;4.88;;;13.10;99.90;;;;;;5038122;28;20549;-82
2022/10/28 04:32:11;;;;;;;5.70;4.32;;;13.10;99.90;;;;;;5055811;28;20021;-80
2022/10/28 04:34:37;;;;;;;6.05;4.40;;;13.10;99.90;;;;;;5038022;28;20029;-79
2022/10/28 04:37:05;;;;;;;9.25;4.65;;;13.00;99.90;;;;;;5036238;28;20070;-79
2022/10/28 04:39:34;;;;;;;7.82;4.90;;;13.00;99.90;;;;;;5018995;28;20029;-79
2022/10/28 04:41:59;;;;;;;14.38;5.40;;;13.10;99.90;;;;;;5018959;28;20018;-79
2022/10/28 04:44:28;;;;;;;7.75;5.30;;;13.10;99.90;;;;;;5018488;28;20030;-80
2022/10/28 04:46:56;;;;;;;11.40;5.28;;;13.10;99.90;;;;;;5019053;28;20101;-80
2022/10/28 04:49:25;;;;;;;8.73;5.43;;;13.10;99.90;;;;;;5035354;28;20025;-79
2022/10/28 04:51:51;;;;;;;12.32;5.70;;;13.20;99.90;;;;;;5016538;28;20057;-79
2022/10/28 04:54:16;;;;;;;16.73;6.03;;;13.40;99.90;;;;;;5015051;28;20108;-79
2022/10/28 04:56:42;;;;;;;13.13;5.70;;;13.70;99.90;;;;;;5015745;28;20389;-79
2022/10/28 04:59:08;;;;;;;12.48;5.25;;;14.20;99.90;;;;;;5015705;28;20021;-78
2022/10/28 05:01:35;;;;;;;9.02;5.15;;;14.50;99.90;;;;;;5015596;28;20018;-79
2022/10/28 05:04:00;;;;;;;8.52;4.28;;;14.70;99.90;;;;;;5015294;28;20026;-79
2022/10/28 05:06:26;;;;;;;8.05;4.80;;;14.80;99.90;;;;;;5022912;28;20034;-81
2022/10/28 05:08:51;;;;;;;10.35;5.47;;;14.80;99.90;;;;;;5032319;28;20619;-80
2022/10/28 05:11:17;;;;;;;13.13;4.57;;;15.00;99.90;;;;;;5037840;28;20457;-80
2022/10/28 05:13:43;;;;;;;16.95;5.25;;;15.20;99.90;;;;;;5040678;28;20386;-80
2022/10/28 05:16:09;;;;;;;17.65;5.68;;;15.30;99.90;;;;;;5039444;28;20025;-80
2022/10/28 05:18:34;;;;;;;10.18;4.72;;;15.20;99.90;;;;;;5040089;28;20117;-80
2022/10/28 05:21:00;;;;;;;12.20;5.07;;;15.00;99.90;;;;;;5058427;28;20021;-81
2022/10/28 05:23:26;;;;;;;10.50;4.60;;;14.90;99.90;;;;;;5057177;28;20122;-80
2022/10/28 05:25:53;;;;;;;8.45;4.47;;;14.80;99.90;;;;;;5059069;28;20382;-81
2022/10/28 05:28:20;;;;;;;6.88;4.35;;;14.70;99.90;;;;;;5059559;28;20025;-82
2022/10/28 05:30:49;;;;;;;8.45;4.47;;;14.60;99.90;;;;;;5059180;28;20029;-82
2022/10/28 05:33:15;;;;;;;6.20;4.22;;;14.50;99.90;;;;;;5056381;28;20032;-79
2022/10/28 05:35:41;;;;;;;8.55;4.13;;;14.50;99.90;;;;;;5033721;28;20115;-78
2022/10/28 05:38:06;;;;;;;9.35;4.65;;;14.40;99.90;;;;;;5026725;28;20117;-79
2022/10/28 05:40:34;;;;;;;9.50;5.18;;;14.30;99.90;;;;;;5025453;28;20017;-79
2022/10/28 05:43:01;;;;;;;9.02;4.88;;;14.30;99.90;;;;;;5030914;28;20076;-79
2022/10/28 05:45:30;;;;;;;9.23;4.63;;;14.30;99.90;;;;;;5011286;28;20090;-79
2022/10/28 05:47:55;;;;;;;8.48;5.45;;;14.30;99.90;;;;;;5012902;28;20062;-79
2022/10/28 05:50:23;;;;;;;12.48;5.20;;;14.20;99.90;;;;;;5011981;28;20057;-79
2022/10/28 05:52:51;;;;;;;10.48;6.00;;;14.20;99.90;;;;;;5014501;28;20395;-79
2022/10/28 05:55:22;;;;;;;8.85;5.35;;;14.20;99.90;;;;;;5020757;28;20605;-78
2022/10/28 05:57:49;;;;;;;8.73;4.55;;;14.10;99.90;;;;;;5024156;28;20026;-79
2022/10/28 06:00:19;;;;;;;10.10;5.03;;;14.00;99.90;;;;;;5017012;28;20026;-79
2022/10/28 06:02:44;;;;;;;12.02;5.60;;;14.00;99.90;;;;;;5012706;28;20127;-80
2022/10/28 06:05:11;;;;;;;13.25;5.93;;;14.00;99.90;;;;;;5013011;28;20022;-79
2022/10/28 06:07:40;;;;;;;9.48;5.43;;;13.90;99.90;;;;;;4999912;28;20068;-80
2022/10/28 06:10:07;;;;;;;10.93;5.68;;;13.90;99.90;;;;;;5023504;28;20036;-79
2022/10/28 06:12:33;;;;;;;12.98;4.88;;;13.90;99.90;;;;;;5017503;28;20161;-81
2022/10/28 06:15:02;;;;;;;13.75;5.68;;;13.90;99.90;;;;;;5018295;28;20483;-80
2022/10/28 06:17:30;;;;;;;5.82;4.63;;;13.90;99.90;;;;;;5018494;28;20041;-81
2022/10/28 06:19:56;;;;;;;12.40;5.05;;;13.90;99.90;;;;;;5017078;28;20029;-81
2022/10/28 06:22:24;;;;;;;8.50;5.30;;;13.80;99.90;;;;;;5034959;28;20480;-80
2022/10/28 06:24:53;;;;;;;6.10;4.72;;;13.90;99.90;;;;;;5017389;28;20651;-82
2022/10/28 06:27:19;;;;;;;8.73;4.65;;;13.90;99.90;;;;;;5010626;28;20017;-82
2022/10/28 06:29:47;;;;;;;9.25;5.18;;;13.90;99.90;;;;;;5019149;28;20083;-83
2022/10/28 06:32:16;;;;;;;6.13;4.82;;;13.90;99.90;;;;;;5016168;28;20028;-82
2022/10/28 06:34:42;;;;;;;6.95;5.03;;;13.80;99.90;;;;;;5016159;28;20538;-83
2022/10/28 06:37:11;;;;;;;9.15;5.28;;;13.80;99.90;;;;;;5016102;28;20075;-83
2022/10/28 06:39:43;;;;;;;6.80;4.82;;;13.80;99.90;;;;;;5015791;28;20552;-82
2022/10/28 06:42:08;;;;;;;15.02;5.00;;;13.80;99.90;;;;;;5017007;28;20033;-83
2022/10/28 06:44:34;;;;;;;11.55;5.13;;;13.70;99.90;;;;;;5035010;28;20021;-82
2022/10/28 06:47:02;;;;;;;10.27;5.03;;;13.70;99.90;;;;;;5016614;28;20487;-82
2022/10/28 06:49:29;;;;;;;10.75;5.40;;;13.70;99.90;;;;;;5016459;28;20313;-81
2022/10/28 06:52:00;;;;;;;16.67;4.82;;;13.70;99.90;;;;;;5016469;28;20092;-82
2022/10/28 06:54:29;;;;;;;8.05;5.00;;;13.70;99.90;;;;;;5017053;28;20120;-82
2022/10/28 06:56:54;;;;;;;12.13;5.10;;;13.70;99.90;;;;;;5016839;28;20394;-81
2022/10/28 06:59:23;;;;;;;14.35;5.90;;;13.70;99.90;;;;;;5020409;28;20014;-82
2022/10/28 07:01:52;;;;;;;13.93;6.07;;;13.70;99.90;;;;;;5013501;28;20111;-82
2022/10/28 07:04:20;;;;;;;9.75;4.93;;;13.70;99.90;;;;;;4997132;28;20022;-81
2022/10/28 07:06:46;;;;;;;9.48;5.28;;;13.70;99.90;;;;;;5015671;28;20033;-81
2022/10/28 07:09:14;;;;;;;13.93;6.07;;;13.60;99.90;;;;;;4997610;28;20587;-81
2022/10/28 07:11:42;;;;;;;7.85;4.65;;;13.60;99.90;;;;;;4997487;28;20028;-82
2022/10/28 07:14:09;;;;;;;11.02;5.13;;;13.60;99.90;;;;;;4998141;28;20120;-81
2022/10/28 07:16:38;;;;;;;10.30;4.70;;;13.60;99.90;;;;;;4997317;28;20721;-81
2022/10/28 07:19:03;;;;;;;12.05;4.78;;;13.60;99.90;;;;;;4955752;28;1195731;-82
2022/10/28 07:21:32;;;;;;;13.48;6.00;;;13.70;99.90;;;;;;5016265;28;20022;-80
2022/10/28 07:24:00;;;;;;;12.48;5.38;;;13.70;99.90;;;;;;4997942;28;20026;-79
2022/10/28 07:26:26;;;;;;;8.65;5.70;;;13.80;99.90;;;;;;5007039;28;20024;-79
2022/10/28 07:28:55;;;;;;;12.15;5.47;;;13.90;99.90;;;;;;5021938;28;20052;-80
2022/10/28 07:31:21;;;;;;;12.82;5.63;;;14.00;99.90;;;;;;5035379;28;20108;-79
2022/10/28 07:33:51;;;;;;;12.23;5.75;;;14.10;99.90;;;;;;5017819;28;20446;-80
2022/10/28 07:36:17;;;;;;;6.25;4.63;;;14.20;99.90;;;;;;5017994;28;20021;-80
2022/10/28 07:38:43;;;;;;;8.00;5.03;;;14.20;99.90;;;;;;5017358;28;20483;-79
2022/10/28 07:41:09;;;;;;;8.15;5.07;;;14.30;99.90;;;;;;5016187;28;20049;-79
2022/10/28 07:43:38;;;;;;;8.50;5.28;;;14.30;99.90;;;;;;5014710;28;20068;-80
2022/10/28 07:46:05;;;;;;;12.00;5.18;;;14.30;99.90;;;;;;5015250;28;20494;-79
2022/10/28 07:48:31;;;;;;;13.02;6.80;;;14.50;99.90;;;;;;5014770;28;20088;-80
2022/10/28 07:51:03;;;;;;;11.13;5.47;;;14.50;99.90;;;;;;5014931;28;20022;-80
2022/10/28 07:53:36;;;;;;;7.53;5.40;;;14.60;99.90;;;;;;5014358;28;20136;-80
2022/10/28 07:56:03;;;;;;;;;;;14.70;99.90;;;;;;5035667;28;20096;-81
2022/10/28 07:58:31;;;;;;;15.00;7.90;;;14.80;99.90;;;;;;5028749;28;20290;-81
2022/10/28 08:01:02;;;;;;;12.98;7.82;;;14.90;99.90;;;;;;5025497;28;20068;-78
2022/10/28 08:03:28;;;;;;;15.57;7.18;;;15.10;99.90;;;;;;4997080;28;20026;-78
2022/10/28 08:06:07;;;;;;;15.20;6.43;;;15.20;99.90;;;;;;5016933;28;20026;-78
2022/10/28 08:08:33;;;;;;;10.18;5.50;;;15.30;99.90;;;;;;5039319;28;20037;-78
2022/10/28 08:11:21;;;;;;;11.27;5.57;;;15.40;99.90;;;;;;5034826;28;20022;-78
2022/10/28 08:13:47;;;;;;;53.22;32.28;;;15.50;99.90;;;;;;5016882;28;20036;-81
2022/10/28 08:16:12;;;;;;;58.08;33.55;;;15.60;99.90;;;;;;5033405;28;20029;-79
2022/10/28 08:18:39;;;;;;;37.55;21.27;;;15.70;99.90;;;;;;5034454;28;20121;-76
2022/10/28 08:21:06;;;;;;;23.17;12.93;;;15.80;99.90;;;;;;5017118;28;20022;-80
2022/10/28 08:23:32;;;;;;;13.48;8.88;;;15.90;99.90;;;;;;5015614;28;20021;-80
2022/10/28 08:26:01;;;;;;;10.70;7.43;;;16.00;99.90;;;;;;5034230;28;20100;-79
2022/10/28 08:28:27;;;;;;;15.45;6.25;;;16.00;99.90;;;;;;5016192;28;20031;-80
2022/10/28 08:31:11;;;;;;;9.77;5.38;;;16.10;99.90;;;;;;5016666;28;20087;-81
2022/10/28 08:33:37;;;;;;;11.15;5.68;;;16.20;99.90;;;;;;5033848;28;20049;-81
2022/10/28 08:36:03;;;;;;;9.57;5.43;;;16.30;99.90;;;;;;5013594;28;20036;-80
2022/10/28 08:38:32;;;;;;;11.75;5.10;;;16.40;99.90;;;;;;5013852;28;20022;-81
2022/10/28 08:41:20;;;;;;;12.25;5.15;;;16.50;99.90;;;;;;5021518;28;20423;-80
2022/10/28 08:44:24;;;;;;;10.65;4.85;;;16.60;99.90;;;;;;5013575;28;20029;-80
2022/10/28 08:47:06;;;;;;;11.63;4.75;;;16.70;99.90;;;;;;5013472;28;20162;-80
2022/10/28 08:49:37;;;;;;;15.45;6.03;;;16.90;99.90;;;;;;5013620;28;20064;-80
2022/10/28 08:52:40;;;;;;;10.55;4.95;;;17.00;99.90;;;;;;5013131;28;20025;-81
2022/10/28 08:55:14;;;;;;;11.20;4.97;;;17.10;99.90;;;;;;4996274;28;20041;-80
2022/10/28 08:57:56;;;;;;;11.10;6.00;;;17.30;99.90;;;;;;5013507;28;20029;-80
2022/10/28 09:00:28;;;;;;;10.82;5.63;;;17.40;99.90;;;;;;5013663;28;20033;-80
2022/10/28 09:03:11;;;;;;;23.55;13.55;;;17.70;99.90;;;;;;5015441;28;20072;-78
2022/10/28 09:05:40;;;;;;;18.33;8.02;;;17.80;99.90;;;;;;5015596;28;20026;-80
2022/10/28 09:08:19;;;;;;;19.20;6.63;;;18.00;99.90;;;;;;5016531;28;20026;-80
2022/10/28 09:11:04;;;;;;;15.82;5.53;;;18.20;99.90;;;;;;5025725;28;20030;-79
2022/10/28 09:14:05;;;;;;;16.08;5.82;;;18.50;99.90;;;;;;5013002;28;20026;-79
2022/10/28 09:16:33;;;;;;;16.98;6.32;;;18.80;99.90;;;;;;5013692;28;20356;-80
2022/10/28 09:19:26;;;;;;;13.30;5.72;;;19.60;99.90;;;;;;4996089;28;20033;-79
2022/10/28 09:22:07;;;;;;;10.20;4.85;;;20.70;99.90;;;;;;4995673;28;20476;-80
2022/10/28 09:24:50;;;;;;;10.00;3.80;;;22.10;99.90;;;;;;5013635;28;20041;-80
2022/10/28 09:27:22;;;;;;;11.85;3.97;;;23.60;99.90;;;;;;5023506;28;20030;-80
2022/10/28 09:30:09;;;;;;;11.40;4.10;;;24.60;97.70;;;;;;5027260;28;20024;-80
2022/10/28 09:32:56;;;;;;;9.50;3.78;;;26.50;94.40;;;;;;5052857;28;20032;-79
2022/10/28 09:35:29;;;;;;;11.50;3.58;;;27.70;91.90;;;;;;5036190;28;20028;-80
2022/10/28 09:38:16;;;;;;;9.07;3.42;;;28.80;87.60;;;;;;5053257;28;20064;-80
2022/10/28 09:40:56;;;;;;;8.07;3.80;;;29.60;81.30;;;;;;5053185;28;20029;-80
2022/10/28 09:43:35;;;;;;;10.07;3.92;;;30.30;78.80;;;;;;5034996;28;20074;-81
2022/10/28 09:46:11;;;;;;;10.10;3.60;;;31.00;75.50;;;;;;5034605;28;20029;-83
2022/10/28 09:48:56;;;;;;;13.13;3.70;;;31.10;73.10;;;;;;5035138;28;20037;-84
2022/10/28 09:51:22;;;;;;;10.70;3.90;;;31.50;71.30;;;;;;5034697;28;20063;-84
2022/10/28 09:54:04;;;;;;;7.75;3.03;;;32.10;69.20;;;;;;5035222;28;20049;-84
2022/10/28 09:56:30;;;;;;;10.52;3.58;;;32.00;68.60;;;;;;5035446;28;20436;-84
2022/10/28 09:59:09;;;;;;;14.63;3.75;;;32.50;68.50;;;;;;5023677;28;20490;-84
2022/10/28 10:01:36;;;;;;;9.77;3.35;;;32.50;65.80;;;;;;5012364;28;20029;-84
2022/10/28 10:04:16;;;;;;;11.88;3.42;;;32.30;66.30;;;;;;4996116;28;20076;-84
2022/10/28 10:06:44;;;;;;;14.80;3.67;;;32.30;65.90;;;;;;5013064;28;20034;-81
2022/10/28 10:09:34;;;;;;;9.80;3.72;;;32.40;63.90;;;;;;5012057;28;20049;-81
2022/10/28 10:12:13;;;;;;;9.07;3.30;;;32.20;63.10;;;;;;5015022;28;20021;-81
2022/10/28 10:15:26;;;;;;;8.57;3.30;;;32.50;65.60;;;;;;4997232;28;20030;-81
2022/10/28 10:17:56;;;;;;;16.67;3.78;;;33.00;63.90;;;;;;5015081;28;20107;-81
2022/10/28 10:20:22;;;;;;;9.50;3.47;;;33.50;61.90;;;;;;4997602;28;20022;-80
2022/10/28 10:22:48;;;;;;;17.02;3.78;;;33.90;62.10;;;;;;4997758;28;20022;-82
2022/10/28 10:25:29;;;;;;;9.93;3.78;;;33.70;61.30;;;;;;5004886;28;20590;-81
2022/10/28 10:28:15;;;;;;;9.32;3.45;;;33.80;58.40;;;;;;5014004;28;20057;-81
2022/10/28 10:30:54;;;;;;;8.88;3.47;;;33.90;59.10;;;;;;5026358;28;20033;-81
2022/10/28 10:33:30;;;;;;;13.32;3.28;;;34.60;58.10;;;;;;5054955;28;20025;-80
2022/10/28 10:36:10;;;;;;;7.32;2.80;;;34.90;57.30;;;;;;5054223;28;20025;-81
2022/10/28 10:38:51;;;;;;;10.75;3.42;;;34.60;56.60;;;;;;5055045;28;20049;-80
2022/10/28 10:41:53;;;;;;;12.70;2.70;;;34.00;57.00;;;;;;5052225;28;20037;-80
2022/10/28 10:44:21;;;;;;;15.63;4.07;;;34.40;56.10;;;;;;4974008;28;20031;-81
2022/10/28 10:46:59;;;;;;;11.13;3.72;;;34.60;55.80;;;;;;5022430;28;20041;-81
2022/10/28 10:49:29;;;;;;;11.65;3.85;;;34.20;55.80;;;;;;5036639;28;20482;-81
2022/10/28 10:52:00;;;;;;;13.70;3.35;;;34.20;54.80;;;;;;5035990;28;20021;-81
2022/10/28 10:54:45;;;;;;;10.80;3.13;;;33.90;54.20;;;;;;5036587;28;20624;-82
2022/10/28 10:57:18;;;;;;;10.05;3.08;;;34.00;55.00;;;;;;5015651;28;20471;-80
2022/10/28 10:59:47;;;;;;;8.57;3.53;;;33.90;54.70;;;;;;5021044;28;20026;-79
2022/10/28 11:02:43;;;;;;;12.85;3.58;;;33.20;54.80;;;;;;4999928;28;20022;-81
2022/10/28 11:05:20;;;;;;;9.32;2.85;;;33.60;54.70;;;;;;5000768;28;20033;-80
2022/10/28 11:07:55;;;;;;;11.68;3.25;;;34.10;53.70;;;;;;5000344;28;20028;-82
2022/10/28 11:10:28;;;;;;;11.63;3.00;;;33.50;54.10;;;;;;5018394;28;20145;-80
2022/10/28 11:13:07;;;;;;;9.30;3.38;;;33.30;54.00;;;;;;5015697;28;20022;-81
2022/10/28 11:15:32;;;;;;;13.13;3.97;;;32.30;55.80;;;;;;5019650;28;20036;-80
2022/10/28 11:18:02;;;;;;;8.25;3.92;;;31.80;56.30;;;;;;5019480;28;20033;-80
2022/10/28 11:20:37;;;;;;;;;;;31.70;57.20;;;;;;5017004;28;20118;-81
2022/10/28 11:23:05;;;;;;;10.38;3.78;;;31.70;56.90;;;;;;5000129;28;20358;-81
2022/10/28 11:25:44;;;;;;;11.35;3.85;;;32.20;57.20;;;;;;5018060;28;20110;-80
2022/10/28 11:28:25;;;;;;;10.80;3.30;;;32.60;56.10;;;;;;5015087;28;20022;-80
2022/10/28 11:31:13;;;;;;;12.10;3.85;;;31.80;56.80;;;;;;5035466;28;20033;-81
2022/10/28 11:33:53;;;;;;;12.38;3.65;;;31.50;56.20;;;;;;5039544;28;20029;-79
2022/10/28 11:36:41;;;;;;;11.70;3.40;;;31.70;56.40;;;;;;5024700;28;20107;-80
2022/10/28 11:39:35;;;;;;;9.48;3.22;;;31.90;56.90;;;;;;5034727;28;20024;-80
2022/10/28 11:42:30;;;;;;;8.13;3.17;;;31.50;56.70;;;;;;5035145;28;20025;-80
2022/10/28 11:45:10;;;;;;;11.13;3.95;;;31.20;58.10;;;;;;5010813;28;20036;-80
2022/10/28 11:48:02;;;;;;;13.27;3.90;;;30.70;59.50;;;;;;5017044;28;20038;-79
2022/10/28 11:50:40;;;;;;;10.52;3.20;;;30.90;59.60;;;;;;5019464;28;20026;-78
2022/10/28 11:53:31;;;;;;;11.25;3.60;;;30.20;59.00;;;;;;5004768;28;20032;-78
2022/10/28 11:56:02;;;;;;;14.15;3.78;;;29.90;60.30;;;;;;5040889;28;20030;-78
2022/10/28 11:58:43;;;;;;;16.83;2.95;;;30.00;60.40;;;;;;5052262;28;20033;-78
2022/10/28 12:01:29;;;;;;;12.05;3.50;;;30.10;59.60;;;;;;5023523;28;20048;-79
2022/10/28 12:04:13;;;;;;;8.45;3.75;;;29.80;60.50;;;;;;5021000;28;20029;-79
2022/10/28 12:06:57;;;;;;;12.50;3.33;;;30.30;60.80;;;;;;5021097;28;20026;-78
2022/10/28 12:09:29;;;;;;;15.15;3.40;;;30.10;60.30;;;;;;5020304;28;20540;-78
2022/10/28 12:12:11;;;;;;;14.68;4.20;;;29.70;60.50;;;;;;5019358;28;20029;-80
2022/10/28 12:14:58;;;;;;;10.52;3.00;;;29.60;60.00;;;;;;5021898;28;20029;-80
2022/10/28 12:17:39;;;;;;;12.35;3.47;;;29.10;61.80;;;;;;5022111;28;20509;-81
2022/10/28 12:20:30;;;;;;;15.30;3.85;;;28.40;64.60;;;;;;5022037;28;20194;-79
2022/10/28 12:23:03;;;;;;;13.98;4.65;;;28.40;62.90;;;;;;5007495;28;20097;-81
2022/10/28 12:25:35;;;;;;;10.20;3.80;;;28.10;64.10;;;;;;5041561;28;20112;-81
2022/10/28 12:28:15;;;;;;;9.48;3.03;;;28.20;64.50;;;;;;5031375;28;20041;-82
2022/10/28 12:30:47;;;;;;;14.30;3.53;;;28.20;64.30;;;;;;5041148;28;20036;-82
2022/10/28 12:33:33;;;;;;;10.30;3.33;;;28.10;64.20;;;;;;5026184;28;20037;-80
2022/10/28 12:36:08;;;;;;;13.32;3.75;;;28.30;63.70;;;;;;5044537;28;20032;-83
2022/10/28 12:38:57;;;;;;;11.63;3.40;;;28.30;63.80;;;;;;5042858;28;20505;-81
2022/10/28 12:41:29;;;;;;;12.23;3.63;;;28.10;64.70;;;;;;5038411;28;20053;-80
2022/10/28 12:44:03;;;;;;;15.43;3.88;;;27.50;64.60;;;;;;5018875;28;20029;-79
2022/10/28 12:46:38;;;;;;;14.85;3.88;;;27.30;65.20;;;;;;5018269;28;20041;-81
2022/10/28 12:49:30;;;;;;;13.57;4.22;;;26.90;65.80;;;;;;5004018;28;20034;-79
2022/10/28 12:52:00;;;;;;;16.02;4.28;;;26.50;67.60;;;;;;5018730;28;20022;-80
2022/10/28 12:54:33;;;;;;;10.50;4.03;;;26.70;68.10;;;;;;5018835;28;20071;-79
2022/10/28 12:57:11;;;;;;;12.00;3.70;;;26.40;67.90;;;;;;5016668;28;20146;-81
2022/10/28 12:59:55;;;;;;;11.50;3.45;;;26.40;68.10;;;;;;5034727;28;20108;-80
2022/10/28 13:02:42;;;;;;;11.48;3.97;;;26.30;69.00;;;;;;5041012;28;20025;-79
2022/10/28 13:05:26;;;;;;;16.85;4.18;;;26.10;68.80;;;;;;5041477;28;20057;-80
2022/10/28 13:08:38;;;;;;;16.05;4.40;;;25.90;68.80;;;;;;5061760;28;20032;-80
2022/10/28 13:11:31;;;;;;;13.45;3.83;;;25.80;69.50;;;;;;5025962;28;20033;-81
2022/10/28 13:14:11;;;;;;;12.68;3.75;;;25.60;70.10;;;;;;5021040;28;20879;-82
2022/10/28 13:16:54;;;;;;;;;;;25.70;70.40;;;;;;5020418;28;20503;-83